createdAt,value
2023-06-29T00:00:10.100Z,98259.80
2023-06-29T00:02:40.988Z,98260.55
2023-06-29T00:05:10.022Z,98263.36
2023-06-29T00:07:37.710Z,98262.05
2023-06-29T00:10:06.217Z,98259.58
2023-06-29T00:12:34.091Z,98258.11
2023-06-29T00:15:01.712Z,98261.23
2023-06-29T00:17:29.520Z,98260.20
2023-06-29T00:19:58.357Z,98254.69
2023-06-29T00:22:26.057Z,98252.73
2023-06-29T00:24:58.231Z,98253.05
2023-06-29T00:27:27.150Z,98253.35
2023-06-29T00:29:54.838Z,98251.21
2023-06-29T00:32:24.011Z,98248.94
2023-06-29T00:34:51.779Z,98246.55
2023-06-29T00:37:19.472Z,98240.39
2023-06-29T00:39:47.192Z,98237.00
2023-06-29T00:42:15.174Z,98234.13
2023-06-29T00:44:42.882Z,98232.05
2023-06-29T00:47:11.088Z,98231.55
2023-06-29T00:49:40.097Z,98230.70
2023-06-29T00:52:08.489Z,98227.15
2023-06-29T00:54:36.636Z,98228.04
2023-06-29T00:57:04.687Z,98224.29
2023-06-29T00:59:32.512Z,98221.42
2023-06-29T01:02:00.356Z,98221.27
2023-06-29T01:04:28.833Z,98216.81
2023-06-29T01:07:02.540Z,98218.59
2023-06-29T01:09:34.737Z,98219.27
2023-06-29T01:12:04.425Z,98216.79
2023-06-29T01:14:34.309Z,98215.30
2023-06-29T01:17:03.273Z,98211.60
2023-06-29T01:19:32.928Z,98212.04
2023-06-29T01:22:08.718Z,98205.61
2023-06-29T01:24:41.237Z,98206.05
2023-06-29T01:27:09.585Z,98198.93
2023-06-29T01:29:38.173Z,98199.48
2023-06-29T01:32:08.862Z,98201.73
2023-06-29T01:34:38.216Z,98199.10
2023-06-29T01:37:17.702Z,98203.23
2023-06-29T01:40:11.472Z,98202.98
2023-06-29T01:42:40.685Z,98201.39
2023-06-29T01:45:11.453Z,98203.65
2023-06-29T01:47:39.755Z,98203.27
2023-06-29T01:50:08.064Z,98200.84
2023-06-29T01:52:38.635Z,98196.80
2023-06-29T01:55:06.860Z,98192.97
2023-06-29T01:57:34.680Z,98193.16
2023-06-29T02:00:02.444Z,98195.00
2023-06-29T02:02:41.964Z,98190.79
2023-06-29T02:05:10.202Z,98193.47
2023-06-29T02:07:40.544Z,98190.81
2023-06-29T02:10:10.480Z,98191.80
2023-06-29T02:12:42.099Z,98188.96
2023-06-29T02:15:14.315Z,98187.48
2023-06-29T02:17:42.113Z,98188.79
2023-06-29T02:20:12.713Z,98187.38
2023-06-29T02:22:40.603Z,98179.05
2023-06-29T02:25:11.777Z,98177.64
2023-06-29T02:27:39.744Z,98180.52
2023-06-29T02:30:07.900Z,98172.27
2023-06-29T02:32:36.532Z,98169.10
2023-06-29T02:35:04.911Z,98166.25
2023-06-29T02:37:33.304Z,98173.04
2023-06-29T02:40:01.172Z,98168.81
2023-06-29T02:42:29.340Z,98172.41
2023-06-29T02:44:57.037Z,98166.20
2023-06-29T02:47:25.001Z,98165.59
2023-06-29T02:49:52.703Z,98162.58
2023-06-29T02:52:21.007Z,98162.63
2023-06-29T02:54:50.810Z,98163.84
2023-06-29T02:57:19.435Z,98167.86
2023-06-29T02:59:47.262Z,98167.48
2023-06-29T03:02:15.459Z,98167.24
2023-06-29T03:04:43.522Z,98167.80
2023-06-29T03:07:11.643Z,98167.92
2023-06-29T03:09:41.790Z,98167.23
2023-06-29T03:12:10.644Z,98168.37
2023-06-29T03:14:38.309Z,98166.62
2023-06-29T03:17:06.864Z,98164.75
2023-06-29T03:19:34.591Z,98167.69
2023-06-29T03:22:02.414Z,98166.11
2023-06-29T03:24:30.058Z,98161.63
2023-06-29T03:26:57.619Z,98163.96
2023-06-29T03:29:25.664Z,98171.58
2023-06-29T03:31:53.500Z,98173.54
2023-06-29T03:34:21.131Z,98175.34
2023-06-29T03:36:48.832Z,98173.52
2023-06-29T03:39:16.997Z,98172.30
2023-06-29T03:41:44.568Z,98176.34
2023-06-29T03:44:12.154Z,98174.95
2023-06-29T03:46:40.034Z,98177.27
2023-06-29T03:49:07.644Z,98179.58
2023-06-29T03:51:35.259Z,98177.96
2023-06-29T03:54:03.047Z,98169.97
2023-06-29T03:56:32.526Z,98169.66
2023-06-29T03:59:00.468Z,98169.28
2023-06-29T04:01:28.122Z,98169.59
2023-06-29T04:03:56.072Z,98169.04
2023-06-29T04:06:23.848Z,98163.76
2023-06-29T04:08:51.585Z,98164.17
2023-06-29T04:11:19.379Z,98166.80
2023-06-29T04:13:47.000Z,98164.34
2023-06-29T04:16:15.095Z,98167.11
2023-06-29T04:18:42.918Z,98171.54
2023-06-29T04:21:10.696Z,98172.14
2023-06-29T04:23:38.347Z,98175.67
2023-06-29T04:26:06.205Z,98175.51
2023-06-29T04:28:36.043Z,98176.02
2023-06-29T04:31:04.321Z,98177.45
2023-06-29T04:33:32.329Z,98175.55
2023-06-29T04:35:59.993Z,98176.63
2023-06-29T04:38:29.120Z,98177.35
2023-06-29T04:41:04.895Z,98177.45
2023-06-29T04:43:33.453Z,98182.61
2023-06-29T04:46:05.574Z,98178.70
2023-06-29T04:48:39.024Z,98180.04
2023-06-29T04:51:07.521Z,98179.49
2023-06-29T04:53:36.559Z,98174.33
2023-06-29T04:56:04.488Z,98175.13
2023-06-29T04:58:32.087Z,98175.64
2023-06-29T05:00:59.947Z,98175.61
2023-06-29T05:03:31.079Z,98174.48
2023-06-29T05:05:58.793Z,98177.35
2023-06-29T05:08:26.762Z,98175.92
2023-06-29T05:10:54.518Z,98173.35
2023-06-29T05:13:22.151Z,98175.36
2023-06-29T05:15:50.300Z,98174.15
2023-06-29T05:18:17.936Z,98169.90
2023-06-29T05:20:46.384Z,98171.52
2023-06-29T05:23:14.066Z,98172.92
2023-06-29T05:25:43.028Z,98176.91
2023-06-29T05:28:11.067Z,98177.84
2023-06-29T05:30:38.839Z,98176.80
2023-06-29T05:33:06.555Z,98181.57
2023-06-29T05:35:35.929Z,98179.20
2023-06-29T05:38:03.777Z,98177.61
2023-06-29T05:40:33.766Z,98177.63
2023-06-29T05:43:01.780Z,98178.55
2023-06-29T05:45:29.634Z,98178.84
2023-06-29T05:47:57.362Z,98180.41
2023-06-29T05:50:25.126Z,98180.69
2023-06-29T05:52:53.035Z,98177.63
2023-06-29T05:55:20.861Z,98185.58
2023-06-29T05:57:48.596Z,98185.77
2023-06-29T06:00:17.200Z,98179.40
2023-06-29T06:02:46.540Z,98182.85
2023-06-29T06:08:05.567Z,98178.95
2023-06-29T06:10:33.359Z,98186.92
2023-06-29T06:13:01.253Z,98189.32
2023-06-29T06:15:28.844Z,98185.39
2023-06-29T06:17:56.537Z,98185.27
2023-06-29T06:20:24.496Z,98183.83
2023-06-29T06:22:52.157Z,98184.60
2023-06-29T06:25:19.826Z,98190.86
2023-06-29T06:27:47.848Z,98192.61
2023-06-29T06:30:15.798Z,98186.79
2023-06-29T06:32:43.702Z,98185.58
2023-06-29T06:35:12.046Z,98180.94
2023-06-29T06:37:40.349Z,98181.48
2023-06-29T06:40:09.179Z,98181.39
2023-06-29T06:42:37.856Z,98183.07
2023-06-29T06:45:07.338Z,98182.38
2023-06-29T06:47:37.007Z,98186.44
2023-06-29T06:50:06.472Z,98184.92
2023-06-29T06:52:34.811Z,98186.55
2023-06-29T06:55:03.142Z,98185.82
2023-06-29T06:57:30.817Z,98191.63
2023-06-29T06:59:58.518Z,98187.63
2023-06-29T07:02:26.938Z,98186.66
2023-06-29T07:04:54.630Z,98193.80
2023-06-29T07:07:22.407Z,98191.54
2023-06-29T07:09:50.107Z,98191.82
2023-06-29T07:12:19.425Z,98198.27
2023-06-29T07:14:47.545Z,98200.32
2023-06-29T07:17:15.137Z,98204.16
2023-06-29T07:24:45.599Z,98203.02
2023-06-29T07:27:13.184Z,98205.40
2023-06-29T07:29:43.985Z,98208.99
2023-06-29T07:32:12.081Z,98212.65
2023-06-29T07:34:39.830Z,98209.42
2023-06-29T07:37:07.628Z,98210.75
2023-06-29T07:39:35.376Z,98209.52
2023-06-29T07:42:03.065Z,98207.23
2023-06-29T07:44:30.907Z,98210.90
2023-06-29T07:46:59.024Z,98209.23
2023-06-29T07:49:26.619Z,98206.83
2023-06-29T07:51:54.477Z,98202.25
2023-06-29T07:54:22.278Z,98210.10
2023-06-29T07:59:20.550Z,98207.91
2023-06-29T08:01:51.801Z,98208.77
2023-06-29T08:06:45.571Z,98212.83
2023-06-29T08:07:10.086Z,98213.40
2023-06-29T08:09:38.991Z,98217.80
2023-06-29T08:12:07.402Z,98218.58
2023-06-29T08:14:36.686Z,98218.05
2023-06-29T08:17:04.874Z,98217.72
2023-06-29T08:19:33.915Z,98217.33
2023-06-29T08:22:01.816Z,98220.41
2023-06-29T08:24:29.515Z,98228.36
2023-06-29T08:26:57.280Z,98226.77
2023-06-29T08:29:26.040Z,98230.48
2023-06-29T08:31:53.782Z,98230.05
2023-06-29T08:34:21.748Z,98228.67
2023-06-29T08:36:51.542Z,98232.07
2023-06-29T08:39:20.400Z,98230.88
2023-06-29T08:41:48.602Z,98231.52
2023-06-29T08:44:16.603Z,98225.96
2023-06-29T08:46:47.485Z,98225.48
2023-06-29T08:49:16.363Z,98225.12
2023-06-29T08:51:47.703Z,98227.02
2023-06-29T08:54:16.799Z,98229.66
2023-06-29T08:56:46.402Z,98229.98
2023-06-29T08:59:14.657Z,98229.81
2023-06-29T09:01:42.482Z,98226.79
2023-06-29T09:04:10.755Z,98219.61
2023-06-29T09:06:39.124Z,98212.95
2023-06-29T09:09:07.551Z,98212.91
2023-06-29T09:11:37.408Z,98217.02
2023-06-29T09:14:09.029Z,98213.88
2023-06-29T09:16:37.594Z,98214.86
2023-06-29T09:19:05.264Z,98224.82
2023-06-29T09:21:34.919Z,98227.28
2023-06-29T09:24:04.819Z,98226.55
2023-06-29T09:26:32.586Z,98222.17
2023-06-29T09:29:01.377Z,98219.36
2023-06-29T09:31:30.906Z,98220.64
2023-06-29T09:34:21.402Z,98222.40
2023-06-29T09:36:50.008Z,98218.52
2023-06-29T09:39:23.915Z,98219.40
2023-06-29T09:41:53.457Z,98219.69
2023-06-29T09:44:23.729Z,98217.66
2023-06-29T09:49:25.462Z,98228.02
2023-06-29T09:52:05.155Z,98224.86
2023-06-29T09:54:36.494Z,98222.64
2023-06-29T09:57:04.951Z,98220.44
2023-06-29T09:59:32.883Z,98218.06
2023-06-29T10:02:01.039Z,98219.16
2023-06-29T10:04:29.012Z,98218.56
2023-06-29T10:07:10.441Z,98211.14
2023-06-29T10:09:40.604Z,98210.02
2023-06-29T10:12:13.353Z,98210.49
2023-06-29T10:14:44.744Z,98207.58
2023-06-29T10:17:29.655Z,98203.55
2023-06-29T10:20:00.866Z,98198.38
2023-06-29T10:22:30.363Z,98196.39
2023-06-29T10:25:02.342Z,98197.38
2023-06-29T10:27:32.034Z,98197.19
2023-06-29T10:30:04.470Z,98199.20
2023-06-29T10:32:37.601Z,98191.43
2023-06-29T10:35:15.263Z,98192.13
2023-06-29T10:37:47.292Z,98195.38
2023-06-29T10:40:19.644Z,98187.11
2023-06-29T10:42:47.192Z,98182.98
2023-06-29T10:45:21.978Z,98181.50
2023-06-29T10:47:59.008Z,98174.73
2023-06-29T10:50:31.875Z,98185.27
2023-06-29T10:53:01.281Z,98186.39
2023-06-29T10:55:40.158Z,98186.09
2023-06-29T10:58:21.111Z,98179.25
2023-06-29T11:00:50.957Z,98179.19
2023-06-29T11:03:20.489Z,98183.48
2023-06-29T11:05:50.272Z,98172.63
2023-06-29T11:08:21.018Z,98183.59
2023-06-29T11:10:49.340Z,98168.51
2023-06-29T11:13:19.928Z,98179.23
2023-06-29T11:15:55.898Z,98187.25
2023-06-29T11:18:23.948Z,98189.23
2023-06-29T11:20:51.688Z,98195.02
2023-06-29T11:23:19.519Z,98197.35
2023-06-29T11:25:47.183Z,98203.16
2023-06-29T11:28:18.048Z,98199.16
2023-06-29T11:30:48.737Z,98200.19
2023-06-29T11:33:33.559Z,98208.30
2023-06-29T11:36:07.649Z,98206.39
2023-06-29T11:38:35.617Z,98201.64
2023-06-29T11:41:05.338Z,98202.58
2023-06-29T11:43:33.567Z,98196.48
2023-06-29T11:46:01.568Z,98195.58
2023-06-29T11:48:31.513Z,98191.98
2023-06-29T11:51:01.660Z,98178.39
2023-06-29T11:53:30.453Z,98189.86
2023-06-29T11:55:58.901Z,98188.05
2023-06-29T11:58:34.366Z,98183.83
2023-06-29T12:01:02.360Z,98195.19
2023-06-29T12:03:30.333Z,98206.85
2023-06-29T12:06:01.404Z,98207.09
2023-06-29T12:08:41.054Z,98202.73
2023-06-29T12:11:16.894Z,98197.70
2023-06-29T12:13:50.113Z,98199.45
2023-06-29T12:18:50.774Z,98207.69
2023-06-29T12:21:20.758Z,98201.19
2023-06-29T12:23:49.333Z,98205.81
2023-06-29T12:26:17.528Z,98202.70
2023-06-29T12:28:45.226Z,98203.89
2023-06-29T12:31:13.427Z,98201.33
2023-06-29T12:33:41.397Z,98200.72
2023-06-29T12:36:09.128Z,98201.08
2023-06-29T12:38:36.762Z,98198.14
2023-06-29T12:41:04.772Z,98196.86
2023-06-29T12:43:32.359Z,98197.45
2023-06-29T12:46:00.235Z,98193.79
2023-06-29T12:48:28.434Z,98195.67
2023-06-29T12:51:01.293Z,98197.69
2023-06-29T12:53:30.486Z,98189.92
2023-06-29T12:55:58.109Z,98185.21
2023-06-29T12:58:26.425Z,98184.23
2023-06-29T13:00:54.203Z,98173.69
2023-06-29T13:03:22.461Z,98174.54
2023-06-29T13:05:53.637Z,98186.20
2023-06-29T13:08:21.641Z,98178.54
2023-06-29T13:10:49.489Z,98179.35
2023-06-29T13:13:17.196Z,98175.77
2023-06-29T13:15:46.500Z,98179.84
2023-06-29T13:18:14.970Z,98182.50
2023-06-29T13:20:42.744Z,98180.75
2023-06-29T13:23:10.468Z,98182.25
2023-06-29T13:25:38.630Z,98178.64
2023-06-29T13:28:06.377Z,98178.86
2023-06-29T13:30:34.084Z,98171.41
2023-06-29T13:33:01.962Z,98160.34
2023-06-29T13:35:29.620Z,98159.81
2023-06-29T13:37:57.254Z,98159.61
2023-06-29T13:40:26.142Z,98163.16
2023-06-29T13:42:53.779Z,98163.56
2023-06-29T13:45:21.537Z,98169.73
2023-06-29T13:47:49.361Z,98167.69
2023-06-29T13:50:20.380Z,98159.60
2023-06-29T13:52:50.851Z,98164.52
2023-06-29T13:55:18.929Z,98162.54
2023-06-29T13:57:46.764Z,98159.70
2023-06-29T14:00:15.333Z,98162.60
2023-06-29T14:02:43.001Z,98166.38
2023-06-29T14:05:10.745Z,98160.38
2023-06-29T14:07:38.611Z,98159.30
2023-06-29T14:10:24.887Z,98156.91
2023-06-29T14:12:52.668Z,98161.25
2023-06-29T14:15:20.314Z,98157.36
2023-06-29T14:17:48.138Z,98159.20
2023-06-29T14:20:16.141Z,98152.82
2023-06-29T14:22:43.742Z,98159.35
2023-06-29T14:25:11.634Z,98162.11
2023-06-29T14:27:39.300Z,98149.02
2023-06-29T14:30:07.859Z,98161.05
2023-06-29T14:32:35.714Z,98160.77
2023-06-29T14:35:03.729Z,98158.95
2023-06-29T14:37:32.707Z,98165.02
2023-06-29T14:40:02.483Z,98157.08
2023-06-29T14:42:34.239Z,98159.23
2023-06-29T14:45:01.800Z,98165.68
2023-06-29T14:47:30.608Z,98159.92
2023-06-29T14:49:58.251Z,98165.35
2023-06-29T14:52:26.379Z,98171.66
2023-06-29T14:54:54.132Z,98172.02
2023-06-29T14:57:23.763Z,98164.27
2023-06-29T14:59:51.592Z,98167.20
2023-06-29T15:02:19.285Z,98169.10
2023-06-29T15:04:47.034Z,98167.33
2023-06-29T15:07:14.689Z,98166.23
2023-06-29T15:09:42.360Z,98173.18
2023-06-29T15:12:10.685Z,98177.42
2023-06-29T15:14:38.360Z,98182.52
2023-06-29T15:17:06.390Z,98175.89
2023-06-29T15:19:34.293Z,98177.95
2023-06-29T15:22:02.184Z,98173.70
2023-06-29T15:24:29.924Z,98177.26
2023-06-29T15:26:57.556Z,98182.88
2023-06-29T15:29:26.330Z,98180.91
2023-06-29T15:31:54.234Z,98188.30
2023-06-29T15:34:22.301Z,98186.90
2023-06-29T15:36:49.950Z,98190.39
2023-06-29T15:39:17.849Z,98197.50
2023-06-29T15:41:51.038Z,98191.95
2023-06-29T15:44:19.319Z,98196.49
2023-06-29T15:46:54.089Z,98194.60
2023-06-29T15:49:22.773Z,98193.05
2023-06-29T15:51:51.259Z,98187.81
2023-06-29T15:54:19.109Z,98188.45
2023-06-29T15:56:46.756Z,98185.44
2023-06-29T15:59:14.720Z,98188.92
2023-06-29T16:01:42.426Z,98184.98
2023-06-29T16:04:10.173Z,98188.17
2023-06-29T16:06:38.252Z,98191.95
2023-06-29T16:09:05.863Z,98197.27
2023-06-29T16:11:33.530Z,98200.79
2023-06-29T16:14:01.663Z,98201.04
2023-06-29T16:16:29.534Z,98187.67
2023-06-29T16:18:57.728Z,98174.93
2023-06-29T16:21:28.762Z,98173.73
2023-06-29T16:23:56.391Z,98176.41
2023-06-29T16:26:24.062Z,98179.89
2023-06-29T16:28:51.983Z,98189.46
2023-06-29T16:31:19.773Z,98208.36
2023-06-29T16:33:47.615Z,98215.60
2023-06-29T16:36:15.339Z,98223.52
2023-06-29T16:38:43.097Z,98235.30
2023-06-29T16:41:11.875Z,98229.39
2023-06-29T16:43:40.274Z,98224.70
2023-06-29T16:46:07.962Z,98219.00
2023-06-29T16:48:35.931Z,98218.97
2023-06-29T16:51:03.744Z,98214.58
2023-06-29T16:53:31.364Z,98215.59
2023-06-29T16:55:59.139Z,98216.48
2023-06-29T16:58:27.888Z,98215.42
2023-06-29T17:00:55.562Z,98215.49
2023-06-29T17:03:23.392Z,98216.36
2023-06-29T17:05:51.489Z,98218.90
2023-06-29T17:08:19.077Z,98218.68
2023-06-29T17:10:47.016Z,98217.59
2023-06-29T17:13:14.734Z,98220.60
2023-06-29T17:15:42.518Z,98218.73
2023-06-29T17:18:11.643Z,98218.59
2023-06-29T17:20:39.441Z,98218.84
2023-06-29T17:23:07.011Z,98218.29
2023-06-29T17:25:34.747Z,98223.85
2023-06-29T17:28:02.359Z,98221.77
2023-06-29T17:30:29.955Z,98224.73
2023-06-29T17:32:57.974Z,98225.88
2023-06-29T17:35:26.025Z,98227.45
2023-06-29T17:37:53.633Z,98227.28
2023-06-29T17:40:21.634Z,98230.65
2023-06-29T17:42:49.437Z,98235.13
2023-06-29T17:45:19.894Z,98232.84
2023-06-29T17:47:47.755Z,98235.16
2023-06-29T17:50:15.991Z,98233.06
2023-06-29T17:52:45.661Z,98241.31
2023-06-29T17:55:13.367Z,98238.88
2023-06-29T17:57:43.106Z,98237.48
2023-06-29T18:00:11.118Z,98240.65
2023-06-29T18:02:39.407Z,98229.27
2023-06-29T18:05:07.435Z,98231.93
2023-06-29T18:07:35.332Z,98231.17
2023-06-29T18:10:08.421Z,98229.15
2023-06-29T18:12:39.878Z,98241.66
2023-06-29T18:15:08.357Z,98241.88
2023-06-29T18:17:36.298Z,98238.69
2023-06-29T18:20:04.849Z,98244.66
2023-06-29T18:22:32.567Z,98246.08
2023-06-29T18:25:00.373Z,98239.98
2023-06-29T18:27:29.540Z,98245.13
2023-06-29T18:29:58.504Z,98242.85
2023-06-29T18:32:26.525Z,98246.05
2023-06-29T18:34:54.221Z,98250.15
2023-06-29T18:37:21.885Z,98253.61
2023-06-29T18:39:49.650Z,98257.69
2023-06-29T18:42:19.224Z,98258.08
2023-06-29T18:44:46.831Z,98252.41
2023-06-29T18:47:15.236Z,98252.46
2023-06-29T18:49:52.096Z,98249.02
2023-06-29T18:52:21.472Z,98260.30
2023-06-29T18:54:52.806Z,98263.05
2023-06-29T18:57:20.670Z,98259.30
2023-06-29T18:59:48.951Z,98262.10
2023-06-29T19:02:16.758Z,98261.70
2023-06-29T19:04:44.431Z,98264.46
2023-06-29T19:07:16.306Z,98266.31
2023-06-29T19:09:44.905Z,98268.98
2023-06-29T19:12:13.682Z,98263.13
2023-06-29T19:14:41.585Z,98265.43
2023-06-29T19:17:09.543Z,98263.18
2023-06-29T19:19:37.515Z,98263.79
2023-06-29T19:22:05.137Z,98262.13
2023-06-29T19:24:33.174Z,98265.30
2023-06-29T19:27:00.904Z,98270.23
2023-06-29T19:29:28.650Z,98268.98
2023-06-29T19:31:56.514Z,98274.30
2023-06-29T19:34:24.456Z,98274.59
2023-06-29T19:36:52.055Z,98274.36
2023-06-29T19:39:20.553Z,98274.19
2023-06-29T19:41:48.243Z,98270.23
2023-06-29T19:44:15.866Z,98271.35
2023-06-29T19:46:45.500Z,98271.97
2023-06-29T19:49:13.642Z,98268.05
2023-06-29T19:51:41.703Z,98264.79
2023-06-29T19:54:09.944Z,98264.68
2023-06-29T19:56:37.610Z,98263.38
2023-06-29T19:59:05.286Z,98260.16
2023-06-29T20:01:33.289Z,98264.73
2023-06-29T20:04:01.154Z,98262.64
2023-06-29T20:06:29.324Z,98256.84
2023-06-29T20:08:57.352Z,98254.66
2023-06-29T20:11:25.252Z,98255.44
2023-06-29T20:13:52.892Z,98264.68
2023-06-29T20:16:20.892Z,98269.09
2023-06-29T20:18:48.712Z,98269.81
2023-06-29T20:21:16.372Z,98266.73
2023-06-29T20:23:44.491Z,98268.37
2023-06-29T20:26:12.108Z,98267.56
2023-06-29T20:28:39.688Z,98267.45
2023-06-29T20:31:07.641Z,98260.58
2023-06-29T20:33:35.481Z,98259.73
2023-06-29T20:36:03.533Z,98259.68
2023-06-29T20:38:31.279Z,98255.27
2023-06-29T20:40:59.081Z,98248.35
2023-06-29T20:43:26.943Z,98252.14
2023-06-29T20:45:55.026Z,98250.27
2023-06-29T20:48:22.751Z,98251.52
2023-06-29T20:51:00.635Z,98244.50
2023-06-29T20:53:38.969Z,98253.54
2023-06-29T20:56:06.657Z,98253.87
2023-06-29T20:58:35.679Z,98258.39
2023-06-29T21:01:07.040Z,98262.39
2023-06-29T21:03:35.265Z,98273.66
2023-06-29T21:06:03.379Z,98263.10
2023-06-29T21:08:31.548Z,98258.99
2023-06-29T21:10:59.274Z,98258.53
2023-06-29T21:13:29.327Z,98252.10
2023-06-29T21:15:57.510Z,98255.02
2023-06-29T21:18:25.673Z,98256.56
2023-06-29T21:20:53.641Z,98255.95
2023-06-29T21:23:21.821Z,98261.32
2023-06-29T21:25:49.830Z,98260.36
2023-06-29T21:28:18.293Z,98259.73
2023-06-29T21:30:46.567Z,98258.15
2023-06-29T21:33:15.509Z,98254.87
2023-06-29T21:35:45.364Z,98250.92
2023-06-29T21:38:13.868Z,98254.67
2023-06-29T21:40:41.488Z,98257.65
2023-06-29T21:43:09.298Z,98260.58
2023-06-29T21:45:37.044Z,98258.73
2023-06-29T21:48:05.103Z,98259.59
2023-06-29T21:50:34.989Z,98250.80
2023-06-29T21:53:03.562Z,98244.77
2023-06-29T21:55:31.364Z,98244.64
2023-06-29T21:57:59.224Z,98244.98
2023-06-29T22:00:27.057Z,98244.94
2023-06-29T22:02:56.538Z,98243.06
2023-06-29T22:05:24.957Z,98243.39
2023-06-29T22:07:52.639Z,98239.12
2023-06-29T22:10:20.553Z,98235.90
2023-06-29T22:12:49.716Z,98237.39
2023-06-29T22:15:24.473Z,98239.26
2023-06-29T22:17:57.399Z,98240.48
2023-06-29T22:20:26.069Z,98237.14
2023-06-29T22:22:57.466Z,98233.29
2023-06-29T22:25:26.452Z,98233.12
2023-06-29T22:27:55.364Z,98229.99
2023-06-29T22:30:23.347Z,98229.43
2023-06-29T22:32:52.815Z,98225.52
2023-06-29T22:35:21.548Z,98227.83
2023-06-29T22:37:49.268Z,98227.07
2023-06-29T22:40:17.112Z,98231.48
2023-06-29T22:42:45.199Z,98235.66
2023-06-29T22:45:13.351Z,98236.35
2023-06-29T22:47:41.113Z,98239.31
2023-06-29T22:50:09.088Z,98239.66
2023-06-29T22:52:37.038Z,98240.92
2023-06-29T22:55:05.351Z,98243.48
2023-06-29T22:57:33.049Z,98246.71
2023-06-29T23:00:00.835Z,98249.05
2023-06-29T23:02:28.431Z,98252.05
2023-06-29T23:04:56.432Z,98248.34
2023-06-29T23:07:24.305Z,98250.02
2023-06-29T23:09:52.008Z,98245.10
2023-06-29T23:12:22.591Z,98243.64
2023-06-29T23:14:52.659Z,98243.66
2023-06-29T23:17:26.272Z,98245.35
2023-06-29T23:19:54.194Z,98241.09
2023-06-29T23:22:24.623Z,98244.38
2023-06-29T23:24:54.152Z,98244.54
2023-06-29T23:27:21.962Z,98247.59
2023-06-29T23:29:50.932Z,98249.86
2023-06-29T23:32:19.026Z,98253.60
2023-06-29T23:34:46.647Z,98254.15
2023-06-29T23:37:14.474Z,98249.17
2023-06-29T23:39:42.314Z,98250.43
2023-06-29T23:42:10.354Z,98247.81
2023-06-29T23:44:42.048Z,98248.82
2023-06-29T23:47:11.562Z,98242.97
2023-06-29T23:49:39.887Z,98240.45
2023-06-29T23:52:10.975Z,98239.40
2023-06-29T23:54:39.709Z,98238.70
2023-06-29T23:57:07.791Z,98238.56
2023-06-29T23:59:35.618Z,98239.29
